Aérodrome :
LOGIN :

S'inscrire | Disclaimer

   EN    FR    IT 

 










Légende :    VFR   VFR Marginal   IFR   IFR Intensif   IFR Très Intensif
Visi : 
Plafond : 
>= 8 km
>= 3000ft
5 à 8 km
1000 à 3000 ft
1500m à 5 km
500 à 1000 ft
800 à 1500m
200 à 500 ft
< 800m
< 200 ft
Symboles :   Orages  Brouillard  Fortes neiges  Fortes précipitations  Vent > 20 kt
SIGMETs :   Divers  Orages  Givrage  Turbulence  Onde Orograph.  Cendres Volcan.






- Altitude de l'aérodrome : 628 ft
- Code IATA : CMR


LFGA - Colmar-Houssen

DERNIER METAR :
  • 171030Z AUTO 01008KT 7000 -RA FEW022 BKN056 OVC066 05/04 Q1005

METARs EXPIRÉS :
  • 171000Z AUTO 36008KT 7000 -RA FEW026 BKN072 OVC084 05/04 Q1006
  • 170930Z AUTO 01007KT 6000 FEW008 OVC025 04/04 Q1007
  • 170900Z AUTO 02006KT 6000 FEW008 SCT018 OVC025 04/04 Q1007
  • 170830Z AUTO 03006KT 5000 BR BKN006 BKN019 OVC025 04/04 Q1007
  • 170800Z AUTO 33003KT 300V020 5000 BR OVC005 03/03 Q1007

TAF N/A



MET'MAP, la Météo Aéronautique d'un coup d'oeil ! - Copyright ORBIFLY Décembre 2007 - Disclaimer

ORBIFLY MET'MAP TEAM :

Programmation & Développement : Alexandra Zaïnal
Conception & Développement : Baudouin d'Aumeries
Co-Programmation & Développement : Marc-Olivier Méhu
Soutien technique & logistique : Manuel Goepfert

Contact : metmap@orbifly.com




SOURCES & CREDITS :

   NOAA